Sensation — C6FM8 — position and weather

sailwx.info

Track history (hours):
 
Tides and Currents Weather Stations Pressure Air Temp Water Temp Dewpoint Dewpoint Depression Visibility Wind Speed Wind Dir Waves Ship Positions

Sensation

Last reported at 2018-Nov-13 07:00 UTC. Time now 2018-Nov-14 03:15 UTC.
Position N 20°48' W 071°48'.

Type: Ship. MMSI: 309697000.

Wind from 050 at 24 knots

Barometer 1014.6 mb
Air temperature 28.0 ° C
Visibility: greater than 10.8 NM
Dewpoint 23.9 ° C
Water temperature 28.0 ° C

Date/timePositionNaut miles runAvg speedWind from/ knotsBaromVisibWave heightAir tempDewpointWater temp
2018-Nov-13 07:00N 20°48' W 071°48'45 2.2 050 / 241014.610.8 28.023.928.0
2018-Nov-12 10:00N 20°06' W 071°30'4715.5 060 / 191013.7 5.4 27.022.827.0
2018-Nov-12 07:00N 20°18' W 072°18'19516.2 050 / 231013.410.8 27.025.728.0
2018-Nov-11 19:00N 21°18' W 075°36'18218.2 030 / 251014.010.8 29.025.028.0
2018-Nov-11 09:00N 22°42' W 078°30'4120.4 030 / 231014.910.8 27.016.426.0
2018-Nov-11 07:00N 23°12' W 079°00'12418.4 050 / 301015.210.8 27.022.828.0
2018-Nov-11 00:16N 25°12' W 079°35'416.7
2018-Nov-11 00:00N 25°16' W 079°36'816.2
2018-Nov-10 23:32N 25°23' W 079°38'816.2
2018-Nov-10 23:02N 25°31' W 079°40'816.7
2018-Nov-10 22:32N 25°37' W 079°47'816.6
2018-Nov-10 22:02N 25°41' W 079°54'816.0
2018-Nov-10 21:32N 25°45' W 080°02'611.3
2018-Nov-10 21:03N 25°46' W 080°08'2 2.6
2018-Nov-10 20:25N 25°47' W 080°10'0 0.0
2018-Nov-10 19:55N 25°47' W 080°10'0 0.0
2018-Nov-10 19:31N 25°47' W 080°10'0 0.0
2018-Nov-10 19:01N 25°47' W 080°10'0 0.0
2018-Nov-10 18:31N 25°47' W 080°10'0 0.0
2018-Nov-10 18:01N 25°47' W 080°10'0 0.0
2018-Nov-10 17:31N 25°47' W 080°10'0 0.0
2018-Nov-10 16:58N 25°47' W 080°10'0 0.0
2018-Nov-10 16:28N 25°47' W 080°10'0 0.0
2018-Nov-10 15:58N 25°47' W 080°10'0 0.0
2018-Nov-10 15:31N 25°47' W 080°10'0 0.0
2018-Nov-10 15:01N 25°47' W 080°10'0 0.0
2018-Nov-10 14:31N 25°47' W 080°10'0 0.0
2018-Nov-10 14:01N 25°47' W 080°10'0 0.0
2018-Nov-10 13:31N 25°47' W 080°10'0 0.0
2018-Nov-10 13:01N 25°47' W 080°10'0 0.0
2018-Nov-10 12:31N 25°47' W 080°10'359750.4
2018-Nov-10 12:02N 20°34' W 083°22'359729.2
2018-Nov-10 11:32N 25°47' W 080°10'1 1.5
2018-Nov-10 11:02N 25°46' W 080°09'510.3
2018-Nov-10 10:32N 25°46' W 080°04'612.5
2018-Nov-10 10:02N 25°43' W 079°58'815.3
2018-Nov-10 09:32N 25°35' W 079°57'816.8
2018-Nov-10 09:02N 25°27' W 079°57'816.2
2018-Nov-10 08:32N 25°19' W 079°57'1934.9
2018-Nov-10 08:00N 25°00' W 080°00'21716.7 050 / 71015.110.8 26.021.828.0
2018-Nov-09 19:00N 23°18' W 083°30'15112.6 360 / 101013.010.8 29.023.528.0
2018-Nov-09 07:00N 20°48' W 083°48'26811.2 010 / 41013.010.8 32.022.328.0
2018-Nov-08 07:00N 18°54' W 079°30'182 8.6 070 / 41011.410.8 29.023.528.0
2018-Nov-07 10:00N 18°54' W 076°18'6923.1 050 / 171011.5 5.4 26.023.227.0
2018-Nov-07 07:00N 19°24' W 075°12'42914.1 040 / 151011.710.8 27.024.327.8
2018-Nov-06 00:29N 25°17' W 079°37'1515.6
2018-Nov-05 23:30N 25°31' W 079°40'715.0
2018-Nov-05 23:03N 25°37' W 079°44'116.1
2018-Nov-05 23:00N 25°37' W 079°45'816.2
2018-Nov-05 22:31N 25°41' W 079°53'715.4
2018-Nov-05 22:03N 25°44' W 079°60'114.1
2018-Nov-05 22:00N 25°44' W 080°01'510.0
2018-Nov-05 21:30N 25°46' W 080°06'4 8.1
2018-Nov-05 21:03N 25°47' W 080°10'0 1.9
2018-Nov-05 20:53N 25°47' W 080°10'0 0.0
2018-Nov-05 20:29N 25°47' W 080°10'0 0.0
2018-Nov-05 20:02N 25°47' W 080°10'0 0.0
2018-Nov-05 19:59N 25°47' W 080°10'0 0.0
2018-Nov-05 19:29N 25°47' W 080°10'0 0.0
2018-Nov-05 19:02N 25°47' W 080°10'0 0.0
2018-Nov-05 18:59N 25°47' W 080°10'0 0.0
2018-Nov-05 18:29N 25°47' W 080°10'0 0.0
2018-Nov-05 17:59N 25°47' W 080°10'0 0.0
2018-Nov-05 17:29N 25°47' W 080°10'0 0.0
2018-Nov-05 17:02N 25°47' W 080°10'0 0.0
2018-Nov-05 16:59N 25°47' W 080°10'0 0.0
2018-Nov-05 16:29N 25°47' W 080°10'0 0.0
2018-Nov-05 16:02N 25°47' W 080°10'0 0.0
2018-Nov-05 15:59N 25°47' W 080°10'0 0.0
2018-Nov-05 15:29N 25°47' W 080°10'0 0.0
2018-Nov-05 15:02N 25°47' W 080°10'0 0.0
2018-Nov-05 14:59N 25°47' W 080°10'0 0.0
2018-Nov-05 14:29N 25°47' W 080°10'0 0.0
2018-Nov-05 14:02N 25°47' W 080°10'0 0.0
2018-Nov-05 13:29N 25°47' W 080°10'0 0.0
2018-Nov-05 13:02N 25°47' W 080°10'0 0.0
2018-Nov-05 12:59N 25°47' W 080°10'0 0.0
2018-Nov-05 12:30N 25°47' W 080°10'1 1.6
2018-Nov-05 12:03N 25°47' W 080°11'0 1.4
2018-Nov-05 12:01N 25°47' W 080°11'4 7.3
2018-Nov-05 11:31N 25°46' W 080°07'4 9.1
2018-Nov-05 11:03N 25°47' W 080°03'0 7.1
2018-Nov-05 11:00N 25°47' W 080°03'5 9.3
2018-Nov-05 10:30N 25°44' W 079°58'612.5
2018-Nov-05 10:03N 25°39' W 079°57'115.4
2018-Nov-05 10:01N 25°38' W 079°56'815.2
2018-Nov-05 09:31N 25°30' W 079°56'715.0
2018-Nov-05 09:03N 25°23' W 079°56'115.0
2018-Nov-05 09:00N 25°23' W 079°56'813.8
2018-Nov-05 08:26N 25°15' W 079°58'47415.9
2018-Nov-04 02:42N 20°38' W 086°56'317.5
2018-Nov-04 02:31N 20°35' W 086°58'614.1
2018-Nov-04 02:03N 20°29' W 086°59'0 3.2
2018-Nov-04 02:01N 20°29' W 086°59'0 0.6
2018-Nov-04 01:28N 20°29' W 086°59'0 0.0
2018-Nov-04 00:58N 20°29' W 086°59'0 0.0
2018-Nov-04 00:28N 20°29' W 086°59'0 0.0
2018-Nov-04 00:02N 20°29' W 086°59'0 0.0
2018-Nov-04 00:01N 20°29' W 086°59'0 0.0
2018-Nov-03 23:30N 20°29' W 086°59'0 0.0
2018-Nov-03 23:03N 20°29' W 086°59'0 0.0
2018-Nov-03 22:57N 20°29' W 086°59'0 0.0
2018-Nov-03 22:30N 20°29' W 086°59'0 0.0
2018-Nov-03 20:30N 20°29' W 086°59'0 0.0
2018-Nov-03 20:03N 20°29' W 086°59'0 0.0
2018-Nov-03 19:57N 20°29' W 086°59'0 0.0
2018-Nov-03 19:30N 20°29' W 086°59'0 0.0
2018-Nov-03 19:03N 20°29' W 086°59'0 0.0
2018-Nov-03 18:57N 20°29' W 086°59'0 0.0
2018-Nov-03 18:30N 20°29' W 086°59'0 0.0
2018-Nov-03 18:03N 20°29' W 086°59'0 0.0
2018-Nov-03 18:00N 20°29' W 086°59'0 0.0
2018-Nov-03 17:30N 20°29' W 086°59'0 0.0
2018-Nov-03 17:03N 20°29' W 086°59'0 0.0
2018-Nov-03 17:00N 20°29' W 086°59'0 0.0
2018-Nov-03 16:30N 20°29' W 086°59'0 0.0
2018-Nov-03 16:03N 20°29' W 086°59'0 0.0
2018-Nov-03 16:00N 20°29' W 086°59'0 0.9
2018-Nov-03 15:30N 20°29' W 086°59'4 7.8
2018-Nov-03 15:03N 20°33' W 086°58'110.2
2018-Nov-03 15:00N 20°33' W 086°58'  
Track history (hours):
 
Tides and Currents Weather Stations Pressure Air Temp Water Temp Dewpoint Dewpoint Depression Visibility Wind Speed Wind Dir Waves Ship Positions

Sensation

Last reported at 2018-Nov-13 07:00 UTC. Time now 2018-Nov-14 03:15 UTC.
Position N 20°48' W 071°48'.

Type: Ship. MMSI: 309697000.

Wind from 050 at 24 knots

Barometer 1014.6 mb
Air temperature 28.0 ° C
Visibility: greater than 10.8 NM
Dewpoint 23.9 ° C
Water temperature 28.0 ° C

Date/timePositionNaut miles runAvg speedWind from/ knotsBaromVisibWave heightAir tempDewpointWater temp
2018-Nov-13 07:00N 20°48' W 071°48'45 2.2 050 / 241014.610.8 28.023.928.0
2018-Nov-12 10:00N 20°06' W 071°30'4715.5 060 / 191013.7 5.4 27.022.827.0
2018-Nov-12 07:00N 20°18' W 072°18'19516.2 050 / 231013.410.8 27.025.728.0
2018-Nov-11 19:00N 21°18' W 075°36'18218.2 030 / 251014.010.8 29.025.028.0
2018-Nov-11 09:00N 22°42' W 078°30'4120.4 030 / 231014.910.8 27.016.426.0
2018-Nov-11 07:00N 23°12' W 079°00'12418.4 050 / 301015.210.8 27.022.828.0
2018-Nov-11 00:16N 25°12' W 079°35'416.7
2018-Nov-11 00:00N 25°16' W 079°36'816.2
2018-Nov-10 23:32N 25°23' W 079°38'816.2
2018-Nov-10 23:02N 25°31' W 079°40'816.7
2018-Nov-10 22:32N 25°37' W 079°47'816.6
2018-Nov-10 22:02N 25°41' W 079°54'816.0
2018-Nov-10 21:32N 25°45' W 080°02'611.3
2018-Nov-10 21:03N 25°46' W 080°08'2 2.6
2018-Nov-10 20:25N 25°47' W 080°10'0 0.0
2018-Nov-10 19:55N 25°47' W 080°10'0 0.0
2018-Nov-10 19:31N 25°47' W 080°10'0 0.0
2018-Nov-10 19:01N 25°47' W 080°10'0 0.0
2018-Nov-10 18:31N 25°47' W 080°10'0 0.0
2018-Nov-10 18:01N 25°47' W 080°10'0 0.0
2018-Nov-10 17:31N 25°47' W 080°10'0 0.0
2018-Nov-10 16:58N 25°47' W 080°10'0 0.0
2018-Nov-10 16:28N 25°47' W 080°10'0 0.0
2018-Nov-10 15:58N 25°47' W 080°10'0 0.0
2018-Nov-10 15:31N 25°47' W 080°10'0 0.0
2018-Nov-10 15:01N 25°47' W 080°10'0 0.0
2018-Nov-10 14:31N 25°47' W 080°10'0 0.0
2018-Nov-10 14:01N 25°47' W 080°10'0 0.0
2018-Nov-10 13:31N 25°47' W 080°10'0 0.0
2018-Nov-10 13:01N 25°47' W 080°10'0 0.0
2018-Nov-10 12:31N 25°47' W 080°10'359750.4
2018-Nov-10 12:02N 20°34' W 083°22'359729.2
2018-Nov-10 11:32N 25°47' W 080°10'1 1.5
2018-Nov-10 11:02N 25°46' W 080°09'510.3
2018-Nov-10 10:32N 25°46' W 080°04'612.5
2018-Nov-10 10:02N 25°43' W 079°58'815.3
2018-Nov-10 09:32N 25°35' W 079°57'816.8
2018-Nov-10 09:02N 25°27' W 079°57'816.2
2018-Nov-10 08:32N 25°19' W 079°57'1934.9
2018-Nov-10 08:00N 25°00' W 080°00'21716.7 050 / 71015.110.8 26.021.828.0
2018-Nov-09 19:00N 23°18' W 083°30'15112.6 360 / 101013.010.8 29.023.528.0
2018-Nov-09 07:00N 20°48' W 083°48'26811.2 010 / 41013.010.8 32.022.328.0
2018-Nov-08 07:00N 18°54' W 079°30'182 8.6 070 / 41011.410.8 29.023.528.0
2018-Nov-07 10:00N 18°54' W 076°18'6923.1 050 / 171011.5 5.4 26.023.227.0
2018-Nov-07 07:00N 19°24' W 075°12'42914.1 040 / 151011.710.8 27.024.327.8
2018-Nov-06 00:29N 25°17' W 079°37'1515.6
2018-Nov-05 23:30N 25°31' W 079°40'715.0
2018-Nov-05 23:03N 25°37' W 079°44'116.1
2018-Nov-05 23:00N 25°37' W 079°45'816.2
2018-Nov-05 22:31N 25°41' W 079°53'715.4
2018-Nov-05 22:03N 25°44' W 079°60'114.1
2018-Nov-05 22:00N 25°44' W 080°01'510.0
2018-Nov-05 21:30N 25°46' W 080°06'4 8.1
2018-Nov-05 21:03N 25°47' W 080°10'0 1.9
2018-Nov-05 20:53N 25°47' W 080°10'0 0.0
2018-Nov-05 20:29N 25°47' W 080°10'0 0.0
2018-Nov-05 20:02N 25°47' W 080°10'0 0.0
2018-Nov-05 19:59N 25°47' W 080°10'0 0.0
2018-Nov-05 19:29N 25°47' W 080°10'0 0.0
2018-Nov-05 19:02N 25°47' W 080°10'0 0.0
2018-Nov-05 18:59N 25°47' W 080°10'0 0.0
2018-Nov-05 18:29N 25°47' W 080°10'0 0.0
2018-Nov-05 17:59N 25°47' W 080°10'0 0.0
2018-Nov-05 17:29N 25°47' W 080°10'0 0.0
2018-Nov-05 17:02N 25°47' W 080°10'0 0.0
2018-Nov-05 16:59N 25°47' W 080°10'0 0.0
2018-Nov-05 16:29N 25°47' W 080°10'0 0.0
2018-Nov-05 16:02N 25°47' W 080°10'0 0.0
2018-Nov-05 15:59N 25°47' W 080°10'0 0.0
2018-Nov-05 15:29N 25°47' W 080°10'0 0.0
2018-Nov-05 15:02N 25°47' W 080°10'0 0.0
2018-Nov-05 14:59N 25°47' W 080°10'0 0.0
2018-Nov-05 14:29N 25°47' W 080°10'0 0.0
2018-Nov-05 14:02N 25°47' W 080°10'0 0.0
2018-Nov-05 13:29N 25°47' W 080°10'0 0.0
2018-Nov-05 13:02N 25°47' W 080°10'0 0.0
2018-Nov-05 12:59N 25°47' W 080°10'0 0.0
2018-Nov-05 12:30N 25°47' W 080°10'1 1.6
2018-Nov-05 12:03N 25°47' W 080°11'0 1.4
2018-Nov-05 12:01N 25°47' W 080°11'4 7.3
2018-Nov-05 11:31N 25°46' W 080°07'4 9.1
2018-Nov-05 11:03N 25°47' W 080°03'0 7.1
2018-Nov-05 11:00N 25°47' W 080°03'5 9.3
2018-Nov-05 10:30N 25°44' W 079°58'612.5
2018-Nov-05 10:03N 25°39' W 079°57'115.4
2018-Nov-05 10:01N 25°38' W 079°56'815.2
2018-Nov-05 09:31N 25°30' W 079°56'715.0
2018-Nov-05 09:03N 25°23' W 079°56'115.0
2018-Nov-05 09:00N 25°23' W 079°56'813.8
2018-Nov-05 08:26N 25°15' W 079°58'47415.9
2018-Nov-04 02:42N 20°38' W 086°56'317.5
2018-Nov-04 02:31N 20°35' W 086°58'614.1
2018-Nov-04 02:03N 20°29' W 086°59'0 3.2
2018-Nov-04 02:01N 20°29' W 086°59'0 0.6
2018-Nov-04 01:28N 20°29' W 086°59'0 0.0
2018-Nov-04 00:58N 20°29' W 086°59'0 0.0
2018-Nov-04 00:28N 20°29' W 086°59'0 0.0
2018-Nov-04 00:02N 20°29' W 086°59'0 0.0
2018-Nov-04 00:01N 20°29' W 086°59'0 0.0
2018-Nov-03 23:30N 20°29' W 086°59'0 0.0
2018-Nov-03 23:03N 20°29' W 086°59'0 0.0
2018-Nov-03 22:57N 20°29' W 086°59'0 0.0
2018-Nov-03 22:30N 20°29' W 086°59'0 0.0
2018-Nov-03 20:30N 20°29' W 086°59'0 0.0
2018-Nov-03 20:03N 20°29' W 086°59'0 0.0
2018-Nov-03 19:57N 20°29' W 086°59'0 0.0
2018-Nov-03 19:30N 20°29' W 086°59'0 0.0
2018-Nov-03 19:03N 20°29' W 086°59'0 0.0
2018-Nov-03 18:57N 20°29' W 086°59'0 0.0
2018-Nov-03 18:30N 20°29' W 086°59'0 0.0
2018-Nov-03 18:03N 20°29' W 086°59'0 0.0
2018-Nov-03 18:00N 20°29' W 086°59'0 0.0
2018-Nov-03 17:30N 20°29' W 086°59'0 0.0
2018-Nov-03 17:03N 20°29' W 086°59'0 0.0
2018-Nov-03 17:00N 20°29' W 086°59'0 0.0
2018-Nov-03 16:30N 20°29' W 086°59'0 0.0
2018-Nov-03 16:03N 20°29' W 086°59'0 0.0
2018-Nov-03 16:00N 20°29' W 086°59'0 0.9
2018-Nov-03 15:30N 20°29' W 086°59'4 7.8
2018-Nov-03 15:03N 20°33' W 086°58'110.2
2018-Nov-03 15:00N 20°33' W 086°58'  

Dump ship's entire track history